Time;durP1;ratioP1;P1;durP2;ratioP2;P2;SDS_P1;SDS_P2;PMS_P1;PMS_P2;Temp;Humidity;BMP_temperature;BMP_pressure;BME280_temperature;BME280_humidity;BME280_pressure;Samples;Min_cycle;Max_cycle;Signal;HPM_P1;HPM_P2
2022/03/09 00:01:34;;;;;;;7.78;2.58;;;;;;;8.08;85.31;99275.13;5041858;28;20032;-81
2022/03/09 00:04:00;;;;;;;13.30;2.70;;;;;;;8.10;85.66;99278.44;5058561;28;20086;-82
2022/03/09 00:06:26;;;;;;;8.30;2.38;;;;;;;8.05;85.82;99271.00;5046144;28;20073;-81
2022/03/09 00:08:51;;;;;;;8.15;2.55;;;;;;;8.07;85.70;99268.94;5045590;28;20032;-83
2022/03/09 00:11:17;;;;;;;5.25;1.88;;;;;;;8.09;85.73;99260.72;5044904;28;20028;-81
2022/03/09 00:13:43;;;;;;;8.57;2.00;;;;;;;8.14;85.72;99259.09;5045844;28;21813;-81
2022/03/09 00:16:09;;;;;;;11.07;2.08;;;;;;;8.14;85.11;99252.91;5042553;28;20123;-80
2022/03/09 00:18:34;;;;;;;5.45;2.05;;;;;;;8.16;86.11;99261.59;5052540;28;20509;-83
2022/03/09 00:21:00;;;;;;;10.15;2.72;;;;;;;8.13;86.13;99264.66;5045870;28;20094;-81
2022/03/09 00:23:25;;;;;;;7.97;1.83;;;;;;;8.15;85.92;99246.56;5033545;28;20517;-80
2022/03/09 00:25:51;;;;;;;5.72;1.95;;;;;;;8.13;85.65;99260.13;5028334;28;20055;-82
2022/03/09 00:28:17;;;;;;;10.55;2.55;;;;;;;8.26;85.36;99246.00;5049622;28;20032;-81
2022/03/09 00:30:42;;;;;;;9.00;2.05;;;;;;;8.29;84.55;99242.91;5064766;28;20028;-81
2022/03/09 00:33:08;;;;;;;8.68;2.05;;;;;;;8.33;84.18;99225.41;5031061;28;20036;-80
2022/03/09 00:35:33;;;;;;;8.90;2.50;;;;;;;8.34;84.30;99226.25;5046149;28;20036;-81
2022/03/09 00:38:02;;;;;;;5.10;1.92;;;;;;;8.29;84.70;99240.25;5029155;28;20377;-82
2022/03/09 00:40:27;;;;;;;7.82;2.63;;;;;;;8.20;84.65;99220.00;5029040;28;20490;-81
2022/03/09 00:42:56;;;;;;;14.52;3.95;;;;;;;8.00;86.64;99203.84;5063605;28;20031;-80
2022/03/09 00:45:22;;;;;;;15.93;2.85;;;;;;;8.00;87.58;99227.09;5041736;28;20037;-81
2022/03/09 00:47:47;;;;;;;10.57;2.90;;;;;;;7.78;90.72;99242.38;5055077;28;20532;-82
2022/03/09 00:50:13;;;;;;;8.23;2.35;;;;;;;7.57;91.50;99209.31;5061684;28;20028;-80
2022/03/09 00:52:38;;;;;;;6.78;2.10;;;;;;;7.56;90.79;99225.53;5060989;28;20037;-81
2022/03/09 00:55:05;;;;;;;6.88;1.90;;;;;;;7.57;92.22;99224.50;5032863;28;20080;-80
2022/03/09 00:57:31;;;;;;;13.20;3.05;;;;;;;7.42;93.77;99211.25;5042604;28;20025;-81
2022/03/09 00:59:57;;;;;;;5.00;1.23;;;;;;;7.32;94.63;99216.91;5063070;28;20102;-82
2022/03/09 01:02:22;;;;;;;12.77;2.50;;;;;;;7.34;92.58;99188.16;5062524;28;20040;-82
2022/03/09 01:04:48;;;;;;;5.88;1.40;;;;;;;7.21;94.69;99196.88;5067818;28;20037;-83
2022/03/09 01:07:14;;;;;;;9.18;1.90;;;;;;;7.09;97.93;99208.28;5025495;28;20068;-82
2022/03/09 01:09:39;;;;;;;7.72;3.22;;;;;;;6.97;99.32;99199.94;5034820;28;20059;-80
2022/03/09 01:12:05;;;;;;;4.65;1.45;;;;;;;6.86;100.00;99198.63;5033843;28;20253;-81
2022/03/09 01:14:31;;;;;;;10.45;1.65;;;;;;;6.78;100.00;99204.06;5064362;28;20108;-83
2022/03/09 01:16:57;;;;;;;15.65;3.08;;;;;;;6.71;100.00;99209.34;5029722;28;20499;-80
2022/03/09 01:19:22;;;;;;;4.07;1.30;;;;;;;6.66;100.00;99202.91;5071554;28;20541;-80
2022/03/09 01:21:48;;;;;;;5.60;2.00;;;;;;;6.56;100.00;99180.00;5068257;28;20029;-81
2022/03/09 01:24:13;;;;;;;8.90;2.50;;;;;;;6.62;100.00;99198.97;5065570;28;20043;-80
2022/03/09 01:26:39;;;;;;;4.65;1.63;;;;;;;6.57;100.00;99133.59;5037056;28;20032;-83
2022/03/09 01:29:06;;;;;;;7.25;1.88;;;;;;;6.59;100.00;99192.16;5066890;28;20060;-80
2022/03/09 01:31:34;;;;;;;7.85;2.35;;;;;;;6.62;100.00;99182.94;5067711;28;20541;-81
2022/03/09 01:33:59;;;;;;;7.18;1.55;;;;;;;6.64;100.00;99176.38;5054549;28;20108;-81
2022/03/09 01:36:25;;;;;;;8.57;2.05;;;;;;;6.63;100.00;99149.88;5066637;28;20039;-80
2022/03/09 01:38:50;;;;;;;6.70;1.95;;;;;;;6.63;100.00;99163.22;5068233;28;20383;-81
2022/03/09 01:41:16;;;;;;;10.60;1.98;;;;;;;6.54;100.00;99155.34;5028564;28;20535;-82
2022/03/09 01:43:45;;;;;;;8.95;1.48;;;;;;;6.55;100.00;99142.81;5051991;28;20039;-80
2022/03/09 01:46:10;;;;;;;8.00;1.50;;;;;;;6.52;100.00;99138.66;5032383;28;20037;-82
2022/03/09 01:48:36;;;;;;;7.65;2.00;;;;;;;6.48;100.00;99134.72;5055162;28;20043;-80
2022/03/09 01:51:02;;;;;;;11.65;2.72;;;;;;;6.48;100.00;99134.72;5052531;28;20028;-81
2022/03/09 01:53:28;;;;;;;11.65;2.63;;;;;;;6.51;100.00;99114.81;5069249;28;20492;-81
2022/03/09 01:55:56;;;;;;;8.50;2.28;;;;;;;6.56;100.00;99125.75;5066111;28;20040;-81
2022/03/09 01:58:21;;;;;;;9.20;1.35;;;;;;;6.60;100.00;99117.19;5053092;28;20390;-80
2022/03/09 02:00:47;;;;;;;6.80;1.48;;;;;;;6.53;100.00;99110.13;5065407;28;20025;-81
2022/03/09 02:03:12;;;;;;;7.10;1.77;;;;;;;6.54;100.00;99117.13;5071669;28;20051;-80
2022/03/09 02:05:38;;;;;;;7.30;2.22;;;;;;;6.56;100.00;99110.59;5066610;28;20032;-83
2022/03/09 02:10:50;;;;;;;11.65;3.15;;;;;;;6.65;100.00;99099.78;5059506;28;20078;-81
2022/03/09 02:13:15;;;;;;;3.65;1.17;;;;;;;6.80;100.00;99105.84;5065999;28;20033;-84
2022/03/09 02:15:44;;;;;;;2.75;1.00;;;;;;;6.76;100.00;99091.25;5060597;28;20032;-83
2022/03/09 02:18:10;;;;;;;8.43;1.50;;;;;;;6.92;100.00;99100.84;5069825;28;20401;-80
2022/03/09 02:20:41;;;;;;;6.13;1.48;;;;;;;6.93;100.00;99073.94;5051334;28;20036;-82
2022/03/09 02:23:07;;;;;;;11.02;3.08;;;;;;;7.15;100.00;99085.41;5050149;28;20107;-81
2022/03/09 02:25:32;;;;;;;4.53;1.83;;;;;;;7.29;100.00;99088.97;5062570;28;20038;-81
2022/03/09 02:28:00;;;;;;;18.02;2.47;;;;;;;7.32;100.00;99088.59;5033769;28;20059;-81
2022/03/09 02:30:26;;;;;;;8.32;2.58;;;;;;;7.47;100.00;99093.84;5048830;28;20071;-81
2022/03/09 02:32:53;;;;;;;9.00;2.78;;;;;;;7.56;100.00;99073.91;5050423;28;20470;-80
2022/03/09 02:35:20;;;;;;;12.82;2.78;;;;;;;7.64;100.00;99088.97;5070580;28;20048;-81
2022/03/09 02:37:46;;;;;;;6.70;2.25;;;;;;;7.68;100.00;99066.16;5034441;28;20028;-81
2022/03/09 02:40:14;;;;;;;6.35;1.65;;;;;;;7.58;100.00;99055.00;5048283;28;20044;-81
2022/03/09 02:42:40;;;;;;;8.35;1.75;;;;;;;7.78;100.00;99082.69;5048742;28;20470;-82
2022/03/09 02:45:06;;;;;;;4.88;1.95;;;;;;;7.72;100.00;99054.03;5046536;28;20487;-82
2022/03/09 02:47:32;;;;;;;9.50;1.98;;;;;;;7.77;100.00;99064.16;5058808;28;20040;-81
2022/03/09 02:49:58;;;;;;;11.15;2.80;;;;;;;7.77;100.00;99056.94;5057582;28;20370;-82
2022/03/09 02:52:26;;;;;;;6.57;2.03;;;;;;;7.79;100.00;99062.91;5043378;28;20036;-82
2022/03/09 02:54:52;;;;;;;8.05;2.13;;;;;;;7.82;100.00;99056.34;5066889;28;20035;-80
2022/03/09 02:57:18;;;;;;;9.98;2.60;;;;;;;7.85;100.00;99046.06;5032882;28;20027;-80
2022/03/09 02:59:43;;;;;;;5.93;1.70;;;;;;;7.90;100.00;99038.25;5050790;28;20370;-81
2022/03/09 03:02:09;;;;;;;12.23;2.25;;;;;;;7.97;100.00;99048.19;5065880;28;20041;-80
2022/03/09 03:04:34;;;;;;;10.43;2.40;;;;;;;8.00;100.00;99048.59;5065629;28;20039;-80
2022/03/09 03:07:00;;;;;;;9.55;2.58;;;;;;;8.09;100.00;99051.91;5035343;28;20047;-81
2022/03/09 03:09:26;;;;;;;10.52;2.13;;;;;;;8.15;100.00;99024.34;5044831;28;20032;-81
2022/03/09 03:11:51;;;;;;;4.55;1.38;;;;;;;8.27;100.00;99036.09;5046179;28;20714;-81
2022/03/09 03:14:17;;;;;;;5.05;2.60;;;;;;;8.37;100.00;99016.97;5040853;28;20033;-80
2022/03/09 03:16:42;;;;;;;13.50;3.63;;;;;;;8.39;100.00;99014.94;5064420;28;20107;-80
2022/03/09 03:19:08;;;;;;;11.73;2.63;;;;;;;8.48;100.00;99031.63;5052398;28;20055;-80
2022/03/09 03:21:34;;;;;;;7.53;2.65;;;;;;;8.52;100.00;99011.44;5070435;28;20468;-81
2022/03/09 03:23:59;;;;;;;9.70;2.25;;;;;;;8.49;100.00;98993.09;5064429;28;20040;-79
2022/03/09 03:26:25;;;;;;;8.02;1.80;;;;;;;8.57;100.00;99025.03;5028882;28;20041;-79
2022/03/09 03:28:52;;;;;;;10.50;3.17;;;;;;;8.55;100.00;99011.84;5065926;28;20048;-80
2022/03/09 03:31:21;;;;;;;10.38;2.85;;;;;;;8.51;100.00;99001.75;5045672;28;20482;-80
2022/03/09 03:33:47;;;;;;;8.05;2.00;;;;;;;8.45;100.00;99006.09;5050819;28;20456;-80
2022/03/09 03:36:15;;;;;;;16.45;4.47;;;;;;;8.37;100.00;99007.06;5064600;28;20478;-80
2022/03/09 03:38:41;;;;;;;9.95;2.28;;;;;;;8.40;100.00;98994.34;5059642;28;20044;-79
2022/03/09 03:41:06;;;;;;;13.95;3.58;;;;;;;8.44;100.00;99006.28;5029383;28;20048;-80
2022/03/09 03:43:32;;;;;;;16.73;3.08;;;;;;;8.42;100.00;99009.16;5044814;28;20135;-80
2022/03/09 03:45:57;;;;;;;13.07;1.98;;;;;;;8.44;100.00;99017.84;5029322;28;20028;-80
2022/03/09 03:48:23;;;;;;;14.05;2.55;;;;;;;8.36;100.00;98986.69;5063814;28;20032;-80
2022/03/09 03:50:49;;;;;;;10.88;2.25;;;;;;;8.46;100.00;98996.19;5045622;28;20028;-81
2022/03/09 03:53:14;;;;;;;14.00;2.58;;;;;;;8.52;100.00;98998.03;5045510;28;20516;-82
2022/03/09 03:55:41;;;;;;;8.20;2.45;;;;;;;8.55;100.00;99008.38;5042254;28;20493;-80
2022/03/09 03:58:06;;;;;;;8.25;2.25;;;;;;;8.51;100.00;98996.41;5047669;28;20120;-79
2022/03/09 04:00:32;;;;;;;5.88;1.13;;;;;;;8.48;100.00;99013.69;5050557;28;20135;-81
2022/03/09 04:02:58;;;;;;;9.77;1.85;;;;;;;8.37;100.00;98996.34;5025541;28;20041;-80
2022/03/09 04:05:23;;;;;;;7.53;2.60;;;;;;;8.40;100.00;98997.00;5045609;28;20044;-80
2022/03/09 04:07:49;;;;;;;9.02;3.33;;;;;;;8.31;100.00;99007.91;5066849;28;20032;-80
2022/03/09 04:10:15;;;;;;;11.45;2.70;;;;;;;8.27;100.00;99009.31;5067161;28;20032;-80
2022/03/09 04:12:40;;;;;;;9.07;2.78;;;;;;;8.24;100.00;99004.38;5062638;28;20024;-80
2022/03/09 04:15:07;;;;;;;11.25;3.45;;;;;;;8.29;100.00;98996.56;5047201;28;20525;-80
2022/03/09 04:17:43;;;;;;;7.55;1.92;;;;;;;8.26;100.00;99004.19;5081739;28;20024;-81
2022/03/09 04:20:11;;;;;;;14.48;2.33;;;;;;;8.19;100.00;99006.84;5046234;28;20067;-81
2022/03/09 04:22:37;;;;;;;9.20;3.15;;;;;;;8.16;100.00;98985.81;5034149;28;20064;-79
2022/03/09 04:25:03;;;;;;;8.15;2.35;;;;;;;8.05;100.00;98986.44;5060994;28;20029;-81
2022/03/09 04:27:28;;;;;;;8.20;2.00;;;;;;;8.14;100.00;98982.53;5049011;28;20086;-81
2022/03/09 04:29:54;;;;;;;9.85;2.25;;;;;;;8.10;100.00;99006.22;5036647;28;20043;-81
2022/03/09 04:32:20;;;;;;;7.72;2.88;;;;;;;8.12;100.00;99009.50;5059832;28;20389;-81
2022/03/09 04:34:45;;;;;;;6.65;2.38;;;;;;;8.10;100.00;99000.03;5047626;28;20039;-82
2022/03/09 04:37:11;;;;;;;13.30;3.10;;;;;;;8.13;100.00;98988.91;5030927;28;20033;-80
2022/03/09 04:39:37;;;;;;;6.57;1.52;;;;;;;8.16;100.00;99009.91;5031274;28;20533;-81
2022/03/09 04:42:02;;;;;;;10.52;3.33;;;;;;;8.08;100.00;98996.72;5034270;28;20036;-80
2022/03/09 04:44:29;;;;;;;5.90;2.45;;;;;;;8.11;100.00;99007.84;5062062;28;20048;-79
2022/03/09 04:46:54;;;;;;;7.45;2.20;;;;;;;8.11;100.00;99002.50;5060969;28;20043;-79
2022/03/09 04:49:20;;;;;;;11.38;3.05;;;;;;;8.13;100.00;98979.03;5049353;28;20040;-79
2022/03/09 04:51:46;;;;;;;12.77;3.45;;;;;;;8.09;100.00;98993.00;5050536;28;20090;-80
2022/03/09 04:54:11;;;;;;;12.05;2.95;;;;;;;8.13;100.00;99010.34;5066451;28;20035;-79
2022/03/09 04:56:37;;;;;;;17.10;3.70;;;;;;;8.17;100.00;99005.38;5033983;28;20037;-80
2022/03/09 04:59:03;;;;;;;11.55;2.97;;;;;;;8.03;100.00;98957.19;5046128;28;20029;-80
2022/03/09 05:01:29;;;;;;;10.43;2.95;;;;;;;8.20;100.00;98988.91;5040584;28;20066;-80
2022/03/09 05:03:54;;;;;;;9.43;2.45;;;;;;;8.16;100.00;98977.78;5043308;28;20044;-78
2022/03/09 05:06:20;;;;;;;5.55;1.52;;;;;;;8.19;100.00;99022.91;5045176;28;20059;-79
2022/03/09 05:08:46;;;;;;;3.75;1.45;;;;;;;8.14;100.00;98961.09;5066012;28;20394;-78
2022/03/09 05:11:11;;;;;;;12.82;2.08;;;;;;;8.12;100.00;98949.78;5023099;28;20078;-80
2022/03/09 05:13:37;;;;;;;6.00;1.48;;;;;;;8.04;100.00;98990.94;5043434;28;20060;-79
2022/03/09 05:16:05;;;;;;;8.85;1.33;;;;;;;8.11;100.00;99015.06;5060258;28;20035;-80
2022/03/09 05:18:31;;;;;;;5.10;1.50;;;;;;;8.09;100.00;98996.50;5076380;28;20020;-81
2022/03/09 05:20:57;;;;;;;5.03;1.73;;;;;;;8.09;100.00;99011.75;5046691;28;20048;-80
2022/03/09 05:23:26;;;;;;;2.38;0.93;;;;;;;8.09;100.00;99027.81;5039965;28;20040;-79
2022/03/09 05:25:52;;;;;;;7.22;2.13;;;;;;;8.06;100.00;99017.50;5063168;28;20161;-81
2022/03/09 05:28:17;;;;;;;3.03;0.95;;;;;;;8.10;100.00;99024.13;5075503;28;20493;-79
2022/03/09 05:30:43;;;;;;;6.22;1.50;;;;;;;8.09;100.00;99009.91;5062694;28;20039;-78
2022/03/09 05:33:08;;;;;;;11.90;2.20;;;;;;;8.08;100.00;99023.50;5064227;28;20054;-80
2022/03/09 05:35:36;;;;;;;7.35;1.73;;;;;;;8.10;100.00;99045.53;5048689;28;20036;-79
2022/03/09 05:38:02;;;;;;;2.95;1.15;;;;;;;8.08;100.00;99031.53;5044258;28;20746;-78
2022/03/09 05:40:28;;;;;;;5.57;1.70;;;;;;;8.09;100.00;99025.94;5032467;28;20024;-79
2022/03/09 05:42:53;;;;;;;2.47;0.88;;;;;;;8.09;100.00;99022.47;5030888;28;20131;-79
2022/03/09 05:45:21;;;;;;;5.95;1.30;;;;;;;8.05;100.00;99066.72;5074380;28;20028;-79
2022/03/09 05:47:47;;;;;;;2.28;0.85;;;;;;;8.10;100.00;99123.19;5063560;28;20032;-80
2022/03/09 05:50:13;;;;;;;0.80;0.80;;;;;;;7.59;100.00;99150.25;5050476;28;20432;-79
2022/03/09 05:52:38;;;;;;;1.67;0.60;;;;;;;5.83;100.00;99140.91;5056332;28;20404;-80
2022/03/09 05:55:04;;;;;;;2.13;0.68;;;;;;;5.36;100.00;99136.72;5073156;28;20028;-79
2022/03/09 05:57:30;;;;;;;0.52;0.52;;;;;;;5.27;100.00;99142.16;5050657;28;20093;-82
2022/03/09 05:59:56;;;;;;;0.45;0.45;;;;;;;5.31;100.00;99157.78;5030218;28;20040;-79
2022/03/09 06:02:22;;;;;;;0.40;0.40;;;;;;;5.26;100.00;99137.81;5049150;28;20067;-79
2022/03/09 06:04:47;;;;;;;1.02;0.47;;;;;;;5.54;100.00;99169.22;5027494;28;20040;-79
2022/03/09 06:07:13;;;;;;;0.30;0.30;;;;;;;5.66;100.00;99156.25;5051403;28;20440;-79
2022/03/09 06:13:01;;;;;;;0.40;0.40;;;;;;;5.93;100.00;99195.66;5064132;28;20099;-81
2022/03/09 06:15:26;;;;;;;0.52;0.40;;;;;;;5.98;100.00;99196.91;5048594;28;20044;-78
2022/03/09 06:17:52;;;;;;;0.40;0.40;;;;;;;6.00;100.00;99195.72;5035195;28;20024;-79
2022/03/09 06:20:20;;;;;;;0.40;0.40;;;;;;;6.09;100.00;99215.97;5062138;28;20477;-78
2022/03/09 06:22:46;;;;;;;0.45;0.45;;;;;;;6.09;100.00;99229.31;5065159;28;20033;-79
2022/03/09 06:25:14;;;;;;;0.82;0.60;;;;;;;6.02;100.00;99231.06;5045380;28;20418;-82
2022/03/09 06:27:45;;;;;;;0.50;0.50;;;;;;;5.94;100.00;99241.81;5051271;28;20556;-80
2022/03/09 06:30:12;;;;;;;0.60;0.60;;;;;;;5.81;100.00;99258.44;5028512;28;20047;-78
2022/03/09 06:32:38;;;;;;;0.40;0.40;;;;;;;5.69;100.00;99271.38;5043990;28;20033;-82
2022/03/09 06:35:06;;;;;;;0.47;0.47;;;;;;;5.49;100.00;99280.88;5059343;28;20132;-80
2022/03/09 06:37:33;;;;;;;0.50;0.50;;;;;;;5.20;100.00;99276.28;5063962;28;20032;-81
2022/03/09 06:39:59;;;;;;;0.50;0.50;;;;;;;5.10;100.00;99294.34;5062662;28;20029;-78
2022/03/09 06:42:25;;;;;;;0.40;0.40;;;;;;;4.99;100.00;99299.03;5069778;28;20083;-79
2022/03/09 06:44:51;;;;;;;0.50;0.50;;;;;;;4.84;100.00;99306.97;5047883;28;20098;-79
2022/03/09 06:47:16;;;;;;;0.40;0.40;;;;;;;4.88;100.00;99319.94;5047428;28;20214;-79
2022/03/09 06:49:43;;;;;;;0.40;0.40;;;;;;;4.76;100.00;99319.47;5049844;28;20615;-78
2022/03/09 06:52:09;;;;;;;0.40;0.40;;;;;;;4.69;100.00;99324.69;5034401;28;20060;-77
2022/03/09 06:54:35;;;;;;;0.40;0.40;;;;;;;4.64;100.00;99345.66;5068327;28;20067;-79
2022/03/09 06:57:00;;;;;;;0.40;0.40;;;;;;;4.52;100.00;99355.84;5034764;28;20086;-79
2022/03/09 06:59:26;;;;;;;0.40;0.40;;;;;;;4.42;100.00;99376.53;5052744;28;20049;-79
2022/03/09 07:01:51;;;;;;;5.68;0.70;;;;;;;4.28;100.00;99359.41;5060038;28;20036;-79
2022/03/09 07:04:17;;;;;;;0.57;0.50;;;;;;;4.10;100.00;99361.41;5045380;28;20050;-80
2022/03/09 07:06:43;;;;;;;0.68;0.50;;;;;;;4.16;100.00;99387.38;5050751;28;20532;-79
2022/03/09 07:09:20;;;;;;;0.40;0.40;;;;;;;4.09;100.00;99399.66;5067152;28;20035;-79
2022/03/09 07:11:48;;;;;;;0.65;0.65;;;;;;;3.99;100.00;99402.50;5042026;28;20060;-79
2022/03/09 07:14:17;;;;;;;0.40;0.40;;;;;;;3.94;100.00;99420.78;5033442;28;20087;-79
2022/03/09 07:16:43;;;;;;;0.65;0.50;;;;;;;3.84;100.00;99404.19;5067198;28;20115;-78
2022/03/09 07:19:08;;;;;;;0.90;0.50;;;;;;;3.74;100.00;99431.75;5050577;28;20078;-79
2022/03/09 07:21:34;;;;;;;0.50;0.50;;;;;;;3.69;100.00;99430.56;5047623;28;20086;-79
2022/03/09 07:23:59;;;;;;;0.50;0.50;;;;;;;3.64;100.00;99411.63;5068210;28;20468;-79
2022/03/09 07:26:25;;;;;;;0.50;0.50;;;;;;;3.68;100.00;99452.84;5052294;28;20036;-80
2022/03/09 07:28:51;;;;;;;6.85;1.15;;;;;;;3.65;100.00;99483.25;5068130;28;20127;-78
2022/03/09 07:31:16;;;;;;;0.50;0.50;;;;;;;3.58;100.00;99473.41;5033968;28;20105;-79
2022/03/09 07:33:42;;;;;;;1.75;0.63;;;;;;;3.53;100.00;99487.19;5064085;28;20036;-78
2022/03/09 07:36:08;;;;;;;0.43;0.43;;;;;;;3.43;100.00;99487.31;5065762;28;20158;-80
2022/03/09 07:38:34;;;;;;;0.50;0.50;;;;;;;3.39;100.00;99498.44;5050572;28;20426;-80
2022/03/09 07:40:59;;;;;;;0.45;0.45;;;;;;;3.37;100.00;99503.91;5069603;28;20033;-79
2022/03/09 07:43:25;;;;;;;0.50;0.50;;;;;;;3.36;100.00;99512.03;5063172;28;20036;-79
2022/03/09 07:45:51;;;;;;;1.55;0.50;;;;;;;3.34;100.00;99524.66;5065507;28;20397;-79
2022/03/09 07:48:16;;;;;;;1.00;0.50;;;;;;;3.37;100.00;99530.47;5035059;28;20389;-80
2022/03/09 07:50:42;;;;;;;0.40;0.40;;;;;;;3.37;100.00;99535.78;5033007;28;20076;-79
2022/03/09 07:53:08;;;;;;;0.50;0.50;;;;;;;3.39;100.00;99548.94;5034183;28;20044;-79
2022/03/09 07:55:34;;;;;;;0.47;0.47;;;;;;;3.40;100.00;99548.75;5047066;28;20098;-79
2022/03/09 07:58:00;;;;;;;0.40;0.40;;;;;;;3.42;100.00;99559.22;5029398;28;20357;-79
2022/03/09 08:00:27;;;;;;;0.63;0.60;;;;;;;3.41;100.00;99554.88;5050603;28;20028;-79
2022/03/09 08:02:53;;;;;;;2.17;0.50;;;;;;;3.43;100.00;99569.69;5052371;28;20451;-78
2022/03/09 08:05:18;;;;;;;0.50;0.50;;;;;;;3.45;100.00;99588.16;5062912;28;20033;-81
2022/03/09 08:07:45;;;;;;;0.50;0.50;;;;;;;3.34;100.00;99568.00;5031206;28;20408;-79
2022/03/09 08:10:11;;;;;;;0.40;0.40;;;;;;;3.44;100.00;99589.13;5033550;28;20090;-80
2022/03/09 08:12:37;;;;;;;0.50;0.50;;;;;;;3.52;100.00;99600.63;5048705;28;20497;-79
2022/03/09 08:15:04;;;;;;;0.50;0.50;;;;;;;3.60;100.00;99605.16;5067970;28;20036;-82
2022/03/09 08:17:30;;;;;;;0.50;0.50;;;;;;;3.64;100.00;99614.47;5047297;28;20037;-84
2022/03/09 08:19:55;;;;;;;0.50;0.50;;;;;;;3.63;100.00;99604.00;5033831;28;20033;-84
2022/03/09 08:22:21;;;;;;;0.50;0.50;;;;;;;3.53;100.00;99615.59;5068412;28;20051;-85
2022/03/09 08:24:47;;;;;;;0.43;0.43;;;;;;;3.68;100.00;99634.44;5052260;28;20116;-80
2022/03/09 08:27:13;;;;;;;0.50;0.50;;;;;;;3.62;100.00;99623.59;5037801;28;20044;-79
2022/03/09 08:29:39;;;;;;;0.50;0.50;;;;;;;3.68;100.00;99633.63;5033179;28;20040;-79
2022/03/09 08:32:05;;;;;;;0.40;0.40;;;;;;;3.67;100.00;99638.06;5035133;28;20051;-79
2022/03/09 08:34:32;;;;;;;0.40;0.40;;;;;;;3.69;100.00;99646.72;5042492;28;20056;-81
2022/03/09 08:36:58;;;;;;;0.47;0.47;;;;;;;3.71;100.00;99654.56;5030683;28;20397;-81
2022/03/09 08:39:24;;;;;;;0.70;0.70;;;;;;;3.74;100.00;99665.69;5060529;28;20377;-78
2022/03/09 08:41:49;;;;;;;0.40;0.40;;;;;;;3.63;100.00;99652.69;5033758;28;20093;-79
2022/03/09 08:44:16;;;;;;;0.50;0.50;;;;;;;3.82;100.00;99670.22;5045414;28;20036;-80
2022/03/09 08:46:42;;;;;;;0.40;0.40;;;;;;;3.85;100.00;99661.94;5052182;28;20040;-83
2022/03/09 08:49:08;;;;;;;0.50;0.50;;;;;;;3.79;100.00;99649.28;5047568;28;20040;-82
2022/03/09 08:51:34;;;;;;;0.50;0.50;;;;;;;3.90;100.00;99670.25;5052112;28;20024;-82
2022/03/09 08:53:59;;;;;;;0.40;0.40;;;;;;;3.92;100.00;99678.09;5055670;28;20468;-81
2022/03/09 08:56:28;;;;;;;0.47;0.47;;;;;;;3.89;100.00;99679.25;5052659;28;20047;-82
2022/03/09 08:58:55;;;;;;;0.40;0.40;;;;;;;3.88;100.00;99685.53;5052779;28;20028;-82
2022/03/09 09:01:22;;;;;;;0.50;0.50;;;;;;;3.83;100.00;99674.53;5058640;28;20039;-81
2022/03/09 09:03:47;;;;;;;0.40;0.40;;;;;;;3.91;100.00;99698.50;5052766;28;20470;-81
2022/03/09 09:06:14;;;;;;;0.50;0.50;;;;;;;3.98;100.00;99709.34;5070537;28;20039;-82
2022/03/09 09:08:40;;;;;;;0.50;0.50;;;;;;;4.02;100.00;99720.50;5052092;28;20125;-82
2022/03/09 09:11:06;;;;;;;0.50;0.50;;;;;;;4.00;100.00;99711.88;5036169;28;20032;-82
2022/03/09 09:13:31;;;;;;;0.50;0.50;;;;;;;4.04;100.00;99718.53;5038321;28;20056;-82
2022/03/09 09:15:57;;;;;;;0.50;0.50;;;;;;;4.06;100.00;99724.53;5054532;28;20040;-81
2022/03/09 09:18:23;;;;;;;0.40;0.40;;;;;;;4.06;100.00;99738.66;5073578;28;20493;-82
2022/03/09 09:20:49;;;;;;;0.85;0.50;;;;;;;4.05;100.00;99737.00;5054309;28;20032;-82
2022/03/09 09:23:15;;;;;;;0.50;0.50;;;;;;;4.03;100.00;99749.63;5038959;28;20104;-82
2022/03/09 09:25:41;;;;;;;14.93;0.70;;;;;;;4.03;100.00;99762.91;5039467;28;20048;-82
2022/03/09 09:28:07;;;;;;;0.50;0.50;;;;;;;3.99;100.00;99752.75;5058039;28;20377;-81
2022/03/09 09:30:33;;;;;;;0.52;0.50;;;;;;;4.04;100.00;99761.09;5056034;28;20037;-82
2022/03/09 09:33:02;;;;;;;0.40;0.40;;;;;;;3.96;100.00;99743.25;5074097;28;20036;-82
2022/03/09 09:35:28;;;;;;;0.50;0.50;;;;;;;4.06;100.00;99765.25;5072401;28;20370;-82
2022/03/09 09:37:54;;;;;;;0.98;0.50;;;;;;;4.04;100.00;99771.72;5056505;28;20067;-81
2022/03/09 09:40:20;;;;;;;0.50;0.50;;;;;;;4.07;100.00;99784.72;5046252;28;20059;-81
2022/03/09 09:42:45;;;;;;;1.45;0.60;;;;;;;4.03;100.00;99791.34;5041421;28;20036;-82
2022/03/09 09:45:11;;;;;;;0.50;0.50;;;;;;;4.01;100.00;99794.16;5044694;28;20111;-82
2022/03/09 09:47:37;;;;;;;2.42;0.60;;;;;;;3.95;100.00;99787.63;5041077;28;20122;-81
2022/03/09 09:50:06;;;;;;;0.70;0.60;;;;;;;3.90;100.00;99789.94;5071983;28;20107;-81
2022/03/09 09:52:33;;;;;;;0.43;0.43;;;;;;;3.89;100.00;99806.03;5043589;28;20474;-82
2022/03/09 09:55:01;;;;;;;0.80;0.60;;;;;;;3.86;100.00;99804.53;5051844;28;20028;-81
2022/03/09 09:57:29;;;;;;;0.40;0.40;;;;;;;3.87;100.00;99808.03;5072893;28;20029;-81
2022/03/09 09:59:55;;;;;;;0.50;0.50;;;;;;;3.93;100.00;99812.72;5051825;28;20478;-77
2022/03/09 10:02:20;;;;;;;4.07;0.90;;;;;;;3.94;100.00;99823.22;5059321;28;20120;-79
2022/03/09 10:04:47;;;;;;;0.63;0.60;;;;;;;3.94;100.00;99835.66;5036277;28;20559;-77
2022/03/09 10:07:13;;;;;;;0.50;0.50;;;;;;;3.83;100.00;99838.56;5064196;28;20406;-77
2022/03/09 10:09:40;;;;;;;0.60;0.60;;;;;;;3.75;100.00;99844.66;5036481;28;20036;-77
2022/03/09 10:12:07;;;;;;;0.50;0.50;;;;;;;3.70;100.00;99839.81;5053987;28;20032;-77
2022/03/09 10:14:53;;;;;;;0.50;0.50;;;;;;;3.66;100.00;99848.25;5050254;28;20043;-77
2022/03/09 10:17:22;;;;;;;0.50;0.50;;;;;;;3.66;100.00;99848.25;5044969;28;20037;-77
2022/03/09 10:19:50;;;;;;;1.85;0.65;;;;;;;3.67;100.00;99855.22;5050576;28;20111;-77
2022/03/09 10:22:33;;;;;;;0.50;0.50;;;;;;;3.75;100.00;99849.97;5052698;28;20040;-77
2022/03/09 10:25:16;;;;;;;1.90;0.65;;;;;;;3.77;100.00;99861.31;5036595;28;20036;-78
2022/03/09 10:27:46;;;;;;;0.60;0.60;;;;;;;3.73;100.00;99854.59;5053074;28;20127;-77
2022/03/09 10:30:22;;;;;;;0.50;0.50;;;;;;;3.63;100.00;99853.88;5066037;28;20024;-77
2022/03/09 10:32:52;;;;;;;0.45;0.45;;;;;;;3.65;100.00;99867.84;5066708;28;20048;-77
2022/03/09 10:35:20;;;;;;;0.40;0.40;;;;;;;3.65;100.00;99865.19;5063503;28;20020;-77
2022/03/09 10:37:48;;;;;;;0.50;0.50;;;;;;;3.65;100.00;99882.00;5069077;28;20036;-77
2022/03/09 10:40:19;;;;;;;1.65;0.50;;;;;;;3.69;100.00;99888.66;5053424;28;20332;-77
2022/03/09 10:42:46;;;;;;;0.50;0.50;;;;;;;3.68;100.00;99888.81;5052587;28;20047;-77
2022/03/09 10:45:17;;;;;;;0.50;0.50;;;;;;;3.79;100.00;99893.91;5055395;28;20505;-77
2022/03/09 10:47:42;;;;;;;0.50;0.50;;;;;;;3.89;100.00;99904.44;5055230;28;20391;-77
2022/03/09 10:50:28;;;;;;;0.50;0.50;;;;;;;3.94;100.00;99905.66;5075834;28;20035;-77
2022/03/09 10:52:58;;;;;;;0.50;0.50;;;;;;;4.00;100.00;99900.72;5053400;28;20048;-76
2022/03/09 10:55:31;;;;;;;0.50;0.50;;;;;;;4.00;100.00;99895.41;5053919;28;20032;-76
2022/03/09 10:58:12;;;;;;;0.50;0.50;;;;;;;3.97;100.00;99905.34;5068767;28;20359;-77
2022/03/09 11:00:47;;;;;;;0.50;0.50;;;;;;;4.02;100.00;99906.69;5066822;28;20042;-77
2022/03/09 11:03:20;;;;;;;0.50;0.50;;;;;;;4.03;100.00;99916.38;5050249;28;20510;-76
2022/03/09 11:05:52;;;;;;;0.50;0.50;;;;;;;4.03;100.00;99922.53;5033598;28;20045;-77
2022/03/09 11:08:23;;;;;;;0.50;0.50;;;;;;;4.11;100.00;99927.06;5037287;28;20094;-76
2022/03/09 11:10:49;;;;;;;0.40;0.40;;;;;;;4.16;100.00;99920.28;5052174;28;20409;-76
2022/03/09 11:13:16;;;;;;;0.50;0.50;;;;;;;4.07;100.00;99907.91;5037361;28;20043;-77
2022/03/09 11:15:43;;;;;;;0.50;0.50;;;;;;;4.24;100.00;99930.16;5034901;28;20354;-76
2022/03/09 11:18:13;;;;;;;0.50;0.50;;;;;;;4.30;100.00;99929.53;5065420;28;20032;-77
2022/03/09 11:20:39;;;;;;;0.50;0.50;;;;;;;4.32;100.00;99924.91;5052391;28;20043;-76
2022/03/09 11:23:05;;;;;;;0.50;0.50;;;;;;;4.42;100.00;99932.78;5069629;28;20028;-77
2022/03/09 11:25:31;;;;;;;0.50;0.50;;;;;;;4.56;100.00;99932.19;5047496;28;20107;-79
2022/03/09 11:27:57;;;;;;;0.50;0.50;;;;;;;4.70;100.00;99933.44;5068307;28;20454;-77
2022/03/09 11:30:27;;;;;;;0.50;0.50;;;;;;;4.87;100.00;99937.03;5068116;28;20116;-77
2022/03/09 11:32:55;;;;;;;0.50;0.50;;;;;;;4.94;100.00;99923.91;5050448;28;20481;-76
2022/03/09 11:35:34;;;;;;;0.50;0.50;;;;;;;5.25;100.00;99946.34;5040229;28;20507;-77
2022/03/09 11:38:01;;;;;;;0.50;0.50;;;;;;;5.37;100.00;99946.91;5051251;28;20040;-79